Time;durP1;ratioP1;P1;durP2;ratioP2;P2;SDS_P1;SDS_P2;PMS_P1;PMS_P2;Temp;Humidity;BMP_temperature;BMP_pressure;BME280_temperature;BME280_humidity;BME280_pressure;Samples;Min_cycle;Max_cycle;Signal;HPM_P1;HPM_P2
2023/10/06 00:03:06;;;;;;;10.05;6.47;;;;;;;24.67;56.33;101810.31;5012425;28;20396;-60
2023/10/06 00:05:33;;;;;;;8.18;6.90;;;;;;;24.65;56.10;101801.44;5013574;28;20045;-60
2023/10/06 00:08:04;;;;;;;7.72;5.93;;;;;;;24.65;56.17;101801.44;5013012;28;20050;-60
2023/10/06 00:10:32;;;;;;;9.15;7.28;;;;;;;24.65;56.03;101796.03;5009759;28;20046;-60
2023/10/06 00:13:00;;;;;;;7.85;6.82;;;;;;;24.65;56.31;101793.31;5012079;28;20096;-60
2023/10/06 00:15:43;;;;;;;9.00;6.70;;;;;;;24.65;56.13;101785.19;5013690;28;20046;-60
2023/10/06 00:18:26;;;;;;;6.88;6.03;;;;;;;24.64;56.12;101786.22;5013195;28;20042;-60
2023/10/06 00:21:04;;;;;;;;;;;;;;;24.63;56.08;101797.16;5002234;28;20050;-60
2023/10/06 00:23:38;;;;;;;11.18;7.70;;;;;;;24.63;56.32;101789.91;5013474;28;19921;-60
2023/10/06 00:26:10;;;;;;;6.72;6.03;;;;;;;24.64;56.24;101783.50;5013469;28;20057;-60
2023/10/06 00:28:39;;;;;;;8.75;6.97;;;;;;;24.64;56.10;101782.66;5011989;28;20034;-61
2023/10/06 00:31:08;;;;;;;9.15;6.88;;;;;;;24.64;56.24;101782.66;5013083;28;20042;-64
2023/10/06 00:33:41;;;;;;;6.93;6.20;;;;;;;24.63;56.14;101781.81;5012901;28;20054;-63
2023/10/06 00:36:18;;;;;;;8.07;6.22;;;;;;;24.63;56.16;101779.09;5013226;28;20046;-64
2023/10/06 00:38:56;;;;;;;9.50;6.50;;;;;;;24.64;56.13;101782.66;5013289;28;20046;-60
2023/10/06 00:41:26;;;;;;;9.45;6.80;;;;;;;24.64;56.00;101790.78;5012776;28;20056;-60
2023/10/06 00:43:55;;;;;;;7.80;6.88;;;;;;;24.64;56.22;101791.63;5013069;28;20045;-60
2023/10/06 00:46:23;;;;;;;7.70;6.38;;;;;;;24.62;56.07;101782.78;5011732;28;20049;-60
2023/10/06 00:48:53;;;;;;;7.15;6.13;;;;;;;24.63;56.03;101784.50;5012968;28;20050;-63
2023/10/06 00:51:25;;;;;;;9.07;6.45;;;;;;;24.62;56.02;101781.94;5012663;28;20049;-64
2023/10/06 00:53:57;;;;;;;8.68;6.13;;;;;;;24.63;56.16;101783.63;5004924;28;20062;-64
2023/10/06 00:56:27;;;;;;;7.60;6.82;;;;;;;24.62;56.18;101780.06;5004986;28;20057;-64
2023/10/06 00:58:55;;;;;;;7.28;6.38;;;;;;;24.62;56.07;101781.94;5012847;28;20046;-63
2023/10/06 01:01:23;;;;;;;6.75;6.03;;;;;;;24.63;56.38;101775.50;5012841;28;20045;-60
2023/10/06 01:06:35;;;;;;;9.95;6.57;;;;;;;24.61;55.96;101781.06;5016277;28;20054;-60
2023/10/06 01:09:17;;;;;;;7.88;6.60;;;;;;;24.62;56.33;101779.22;5016667;28;20038;-60
2023/10/06 01:11:46;;;;;;;6.50;5.70;;;;;;;24.62;55.94;101780.06;5013028;28;20053;-60
2023/10/06 01:14:21;;;;;;;8.00;6.65;;;;;;;24.61;56.23;101774.81;5007038;28;20404;-60
2023/10/06 01:16:51;;;;;;;8.98;6.30;;;;;;;24.60;56.18;101771.25;5016798;28;20065;-59
2023/10/06 01:19:28;;;;;;;8.23;5.85;;;;;;;24.61;56.20;101769.41;5016351;28;20444;-60
2023/10/06 01:21:55;;;;;;;10.10;7.25;;;;;;;24.60;56.17;101767.69;5015776;28;20076;-60
2023/10/06 01:24:26;;;;;;;7.93;6.22;;;;;;;24.60;55.99;101763.13;5016215;28;20041;-60
2023/10/06 01:27:11;;;;;;;8.73;6.63;;;;;;;24.60;56.24;101771.25;5016513;28;20050;-60
2023/10/06 01:29:38;;;;;;;7.18;5.85;;;;;;;24.60;56.15;101773.97;5013952;28;20066;-64
2023/10/06 01:32:05;;;;;;;6.93;6.05;;;;;;;24.59;56.18;101774.97;5016135;28;20053;-64
2023/10/06 01:34:38;;;;;;;8.45;6.18;;;;;;;24.59;55.97;101774.97;5016296;28;20053;-64
2023/10/06 01:37:11;;;;;;;7.18;6.03;;;;;;;24.59;56.12;101783.09;5016245;28;20073;-64
2023/10/06 01:39:40;;;;;;;7.35;6.35;;;;;;;24.60;56.08;101786.66;5015253;28;20053;-63
2023/10/06 01:42:08;;;;;;;8.57;6.68;;;;;;;24.58;55.87;101775.94;5015949;28;20377;-64
2023/10/06 01:44:36;;;;;;;8.38;6.63;;;;;;;24.60;55.98;101786.66;5015987;28;20049;-64
2023/10/06 01:47:06;;;;;;;8.65;6.65;;;;;;;24.60;56.02;101781.22;5012495;28;20496;-64
2023/10/06 01:49:34;;;;;;;6.85;6.00;;;;;;;24.59;55.96;101785.78;5015185;28;20065;-64
2023/10/06 01:52:02;;;;;;;8.98;6.35;;;;;;;24.58;56.20;101778.66;4999454;28;20061;-64
2023/10/06 01:54:36;;;;;;;6.55;5.85;;;;;;;24.59;56.07;101782.19;5016206;28;20057;-64
2023/10/06 01:57:06;;;;;;;7.18;6.38;;;;;;;24.58;55.91;101789.47;5013543;28;20057;-64
2023/10/06 01:59:34;;;;;;;7.57;6.03;;;;;;;24.59;55.80;101787.63;5015411;28;20056;-64
2023/10/06 02:02:02;;;;;;;10.45;6.50;;;;;;;24.58;56.04;101792.19;5015751;28;20042;-57
2023/10/06 02:04:44;;;;;;;8.52;7.10;;;;;;;24.58;55.78;101797.59;5015682;28;20058;-57
2023/10/06 02:07:12;;;;;;;9.13;7.20;;;;;;;24.55;55.62;101795.19;5015079;28;20050;-57
2023/10/06 02:09:40;;;;;;;8.82;6.65;;;;;;;24.52;55.32;101790.06;5011849;28;20077;-57
2023/10/06 02:12:07;;;;;;;7.20;6.25;;;;;;;24.49;55.23;101790.34;5012915;28;20420;-57
2023/10/06 02:14:35;;;;;;;6.97;6.22;;;;;;;24.46;54.70;101789.78;5010952;28;20054;-57
2023/10/06 02:17:06;;;;;;;8.57;6.93;;;;;;;24.44;54.83;101786.38;5015798;28;20049;-57
2023/10/06 02:19:34;;;;;;;8.82;7.90;;;;;;;24.41;54.68;101796.47;5015142;28;20054;-57
2023/10/06 02:22:06;;;;;;;9.98;7.72;;;;;;;24.39;54.58;101784.09;5014944;28;20042;-57
2023/10/06 02:24:33;;;;;;;10.35;8.38;;;;;;;24.38;54.75;101785.06;5014253;28;20050;-58
2023/10/06 02:27:01;;;;;;;8.50;7.60;;;;;;;24.36;54.69;101795.16;5015022;28;20058;-58
2023/10/06 02:29:29;;;;;;;9.80;8.07;;;;;;;24.34;54.76;101789.88;5015503;28;20045;-57
2023/10/06 02:32:06;;;;;;;8.73;7.53;;;;;;;24.33;55.13;101795.44;5015385;28;20538;-57
2023/10/06 02:34:36;;;;;;;9.30;7.90;;;;;;;24.32;54.71;101799.16;5014815;28;20050;-57
2023/10/06 02:37:06;;;;;;;8.32;7.43;;;;;;;24.31;54.78;101797.44;5015400;28;20057;-57
2023/10/06 02:39:43;;;;;;;9.05;7.35;;;;;;;24.29;55.08;101791.31;5014996;28;20049;-58
2023/10/06 02:42:13;;;;;;;10.75;7.78;;;;;;;24.27;54.97;101794.16;5011306;28;20061;-58
2023/10/06 02:44:41;;;;;;;9.65;7.90;;;;;;;24.26;54.71;101788.88;5014979;28;20056;-57
2023/10/06 02:47:09;;;;;;;10.57;8.13;;;;;;;24.27;55.01;101790.59;5014570;28;20523;-58
2023/10/06 02:49:40;;;;;;;8.68;7.78;;;;;;;24.25;54.77;101795.28;5014649;28;20053;-57
2023/10/06 02:52:22;;;;;;;10.68;8.15;;;;;;;24.23;54.77;101790.03;5014293;28;20065;-57
2023/10/06 02:55:08;;;;;;;10.50;8.27;;;;;;;24.23;55.04;101798.16;5014773;28;20401;-57
2023/10/06 02:57:36;;;;;;;11.80;7.57;;;;;;;24.21;55.01;101796.56;5014503;28;20049;-57
2023/10/06 03:03:27;;;;;;;10.32;8.60;;;;;;;24.19;54.74;101794.00;5014618;28;20053;-57
2023/10/06 03:05:52;;;;;;;10.90;7.70;;;;;;;24.18;54.80;101790.47;5009059;28;20080;-57
2023/10/06 03:08:30;;;;;;;9.48;8.02;;;;;;;24.17;54.54;101786.00;5012862;28;20054;-57
2023/10/06 03:10:57;;;;;;;9.10;8.18;;;;;;;24.15;54.76;101785.31;5014963;28;20388;-57
2023/10/06 03:13:43;;;;;;;10.75;8.70;;;;;;;24.16;54.62;101788.88;5006323;28;20050;-58
2023/10/06 03:16:12;;;;;;;10.27;8.48;;;;;;;24.14;54.64;101789.00;5003351;28;20061;-58
2023/10/06 03:18:39;;;;;;;9.35;8.23;;;;;;;24.14;54.76;101788.13;5013092;28;20488;-58
2023/10/06 03:23:43;;;;;;;9.35;8.40;;;;;;;24.13;54.70;101790.00;5011464;28;20046;-58
2023/10/06 03:26:29;;;;;;;;;;;;;;;24.10;54.82;101784.00;5010715;28;20054;-57
2023/10/06 03:29:02;;;;;;;10.57;7.80;;;;;;;24.11;54.90;101792.00;5013845;28;19940;-57
2023/10/06 03:31:44;;;;;;;10.10;8.48;;;;;;;24.11;55.10;101788.44;5011406;28;20057;-58
2023/10/06 03:34:16;;;;;;;10.90;8.07;;;;;;;24.10;54.65;101794.84;5014428;28;20061;-57
2023/10/06 03:37:04;;;;;;;13.48;7.80;;;;;;;24.09;55.19;101796.69;5014058;28;20054;-57
2023/10/06 03:39:38;;;;;;;9.63;8.55;;;;;;;24.08;55.08;101794.13;5012076;28;20054;-57
2023/10/06 03:42:11;;;;;;;9.30;7.82;;;;;;;24.07;55.18;101795.13;4993943;28;20050;-57
2023/10/06 03:44:38;;;;;;;;;;;;;;;24.05;55.07;101794.41;5012863;28;20058;-58
2023/10/06 03:47:08;;;;;;;11.10;8.13;;;;;;;24.06;55.06;101794.25;5012856;28;19929;-58
2023/10/06 03:49:37;;;;;;;11.43;7.57;;;;;;;24.05;55.51;101797.97;5013713;28;20053;-57
2023/10/06 03:52:09;;;;;;;10.48;8.68;;;;;;;24.06;55.55;101804.22;5012639;28;20424;-58
2023/10/06 03:54:37;;;;;;;9.85;8.02;;;;;;;24.05;55.11;101797.97;5013293;28;20054;-57
2023/10/06 03:57:04;;;;;;;8.85;7.95;;;;;;;24.04;55.08;101796.25;5011450;28;20057;-58
2023/10/06 03:59:32;;;;;;;11.43;8.88;;;;;;;24.04;55.18;101803.53;5013731;28;20056;-58
2023/10/06 04:02:02;;;;;;;10.07;9.05;;;;;;;24.04;55.39;101807.06;5013510;28;20041;-58
2023/10/06 04:04:30;;;;;;;9.73;8.00;;;;;;;24.03;54.90;101805.38;5013298;28;20049;-58
2023/10/06 04:06:58;;;;;;;10.05;8.73;;;;;;;24.02;54.82;101806.34;5012441;28;20057;-58
2023/10/06 04:09:28;;;;;;;9.82;8.50;;;;;;;24.02;54.92;101809.06;5013328;28;20416;-58
2023/10/06 04:12:01;;;;;;;10.25;8.50;;;;;;;24.01;54.76;101812.75;5013220;28;20050;-58
2023/10/06 04:14:31;;;;;;;9.45;7.95;;;;;;;24.01;54.94;101820.03;5010244;28;20046;-57
2023/10/06 04:17:01;;;;;;;9.52;8.07;;;;;;;24.00;55.04;101816.47;5012510;28;20053;-57
2023/10/06 04:19:29;;;;;;;9.77;8.80;;;;;;;23.98;55.15;101821.13;5013152;28;20416;-58
2023/10/06 04:21:56;;;;;;;10.02;9.02;;;;;;;23.97;54.86;101816.72;5013032;28;20046;-57
2023/10/06 04:24:24;;;;;;;9.98;8.73;;;;;;;23.97;54.89;101821.28;5012694;28;20404;-57
2023/10/06 04:26:51;;;;;;;9.95;8.75;;;;;;;23.95;54.76;101824.16;5012925;28;20042;-57
2023/10/06 04:29:19;;;;;;;10.35;8.82;;;;;;;23.95;54.81;101824.16;5012859;28;20045;-57
2023/10/06 04:31:47;;;;;;;9.77;8.82;;;;;;;23.94;55.14;101822.41;5012833;28;20404;-57
2023/10/06 04:34:15;;;;;;;10.63;8.25;;;;;;;23.95;54.99;101820.59;5012297;28;20109;-57
2023/10/06 04:36:42;;;;;;;9.15;7.90;;;;;;;23.94;54.96;101827.81;5013257;28;20054;-57
2023/10/06 04:39:15;;;;;;;12.73;9.10;;;;;;;23.93;54.87;101813.44;5012742;28;20050;-57
2023/10/06 04:41:43;;;;;;;10.63;8.65;;;;;;;23.93;54.77;101823.41;5012938;28;20045;-57
2023/10/06 04:44:10;;;;;;;10.32;9.23;;;;;;;23.94;55.00;101817.00;5011846;28;20511;-52
2023/10/06 04:46:39;;;;;;;11.20;8.57;;;;;;;23.96;55.31;101816.88;5012788;28;20050;-57
2023/10/06 04:49:07;;;;;;;9.52;8.52;;;;;;;23.97;55.27;101822.16;5012760;28;20050;-57
2023/10/06 04:51:35;;;;;;;10.85;9.00;;;;;;;23.97;55.07;101827.56;5012846;28;20033;-59
2023/10/06 04:54:02;;;;;;;8.23;7.43;;;;;;;23.98;54.97;101829.25;5011478;28;20050;-57
2023/10/06 04:56:32;;;;;;;9.38;8.32;;;;;;;23.98;55.05;101820.28;5012482;28;20053;-57
2023/10/06 04:59:00;;;;;;;10.23;9.10;;;;;;;23.97;54.87;101824.84;5012661;28;20041;-58
2023/10/06 05:01:31;;;;;;;9.57;8.35;;;;;;;23.93;54.74;101835.09;5013722;28;20046;-57
2023/10/06 05:03:59;;;;;;;9.77;8.55;;;;;;;23.94;54.72;101835.94;5011710;28;20053;-57
2023/10/06 05:06:26;;;;;;;10.65;9.10;;;;;;;23.93;55.07;101842.34;5012678;28;20046;-57
2023/10/06 05:08:54;;;;;;;9.80;8.80;;;;;;;23.91;54.75;101836.22;5012587;28;20484;-57
2023/10/06 05:11:23;;;;;;;9.95;8.68;;;;;;;23.91;54.71;101841.66;5012669;28;20046;-57
2023/10/06 05:13:52;;;;;;;9.95;8.95;;;;;;;23.90;54.41;101843.50;5011548;28;20046;-57
2023/10/06 05:16:22;;;;;;;10.20;9.02;;;;;;;23.91;54.78;101855.16;5012707;28;20052;-57
2023/10/06 05:18:51;;;;;;;10.50;9.15;;;;;;;23.90;54.59;101850.72;5012701;28;20517;-58
2023/10/06 05:21:20;;;;;;;10.90;9.18;;;;;;;23.88;54.70;101850.88;5012222;28;20046;-58
2023/10/06 05:23:47;;;;;;;10.38;9.10;;;;;;;23.88;54.56;101852.72;5001841;28;20051;-58
2023/10/06 05:26:15;;;;;;;15.32;9.55;;;;;;;23.87;54.75;101853.72;5012680;28;20048;-58
2023/10/06 05:28:44;;;;;;;11.00;8.45;;;;;;;23.87;55.01;101856.44;5012853;28;20046;-58
2023/10/06 05:31:12;;;;;;;14.20;9.10;;;;;;;23.87;55.01;101867.25;5012198;28;20480;-57
2023/10/06 05:33:44;;;;;;;11.32;9.30;;;;;;;23.86;55.09;101866.41;5011357;28;20042;-57
2023/10/06 05:36:12;;;;;;;10.80;8.93;;;;;;;23.87;54.90;101864.53;5012428;28;20053;-57
2023/10/06 05:38:45;;;;;;;10.90;8.70;;;;;;;23.86;54.55;101871.81;5012156;28;20061;-57
2023/10/06 05:41:13;;;;;;;11.80;9.98;;;;;;;23.86;54.51;101874.50;5011254;28;20038;-58
2023/10/06 05:43:41;;;;;;;10.70;8.95;;;;;;;23.85;54.90;101882.75;5012424;28;20050;-57
2023/10/06 05:46:09;;;;;;;10.40;8.98;;;;;;;23.83;54.63;101879.34;5012610;28;20389;-57
2023/10/06 05:48:38;;;;;;;10.63;9.23;;;;;;;23.82;54.74;101874.91;5013455;28;20049;-57
2023/10/06 05:51:08;;;;;;;11.77;9.82;;;;;;;23.82;55.09;101877.59;5014771;28;20404;-58
2023/10/06 05:53:43;;;;;;;11.02;9.77;;;;;;;23.82;54.94;101893.81;5016158;28;20053;-57
2023/10/06 05:56:11;;;;;;;10.95;9.73;;;;;;;23.81;54.92;101892.97;5011158;28;20056;-57
2023/10/06 05:58:43;;;;;;;12.60;9.77;;;;;;;23.81;54.97;101898.38;5011018;28;20053;-57
2023/10/06 06:01:12;;;;;;;11.25;10.05;;;;;;;23.80;55.05;101896.66;5014061;28;20054;-57
2023/10/06 06:03:45;;;;;;;11.65;10.07;;;;;;;23.80;55.10;101903.94;5015463;28;20050;-57
2023/10/06 06:06:22;;;;;;;11.88;10.07;;;;;;;23.79;55.26;101905.78;5015571;28;20057;-57
2023/10/06 06:08:55;;;;;;;11.35;9.48;;;;;;;23.81;55.12;101905.63;5014739;28;20046;-57
2023/10/06 06:11:24;;;;;;;11.05;9.38;;;;;;;23.80;54.91;101917.47;5016085;28;20052;-57
2023/10/06 06:13:56;;;;;;;11.80;10.20;;;;;;;23.78;55.03;101909.50;5015558;28;20046;-58
2023/10/06 06:16:44;;;;;;;11.32;10.13;;;;;;;23.79;55.07;101915.75;5014192;28;20488;-58
2023/10/06 06:19:12;;;;;;;13.55;11.00;;;;;;;23.80;55.00;101912.91;5015542;28;20061;-57
2023/10/06 06:21:39;;;;;;;12.07;10.80;;;;;;;23.82;55.05;101924.44;5015493;28;20469;-57
2023/10/06 06:24:07;;;;;;;12.05;10.60;;;;;;;23.83;55.53;101922.59;5015270;28;20049;-59
2023/10/06 06:26:38;;;;;;;12.30;11.07;;;;;;;23.84;55.45;101927.88;5014300;28;20061;-61
2023/10/06 06:29:08;;;;;;;14.27;10.98;;;;;;;23.86;55.47;101930.41;5015235;28;20499;-63
2023/10/06 06:31:35;;;;;;;12.75;10.30;;;;;;;23.88;55.03;101932.00;5014991;28;20046;-63
2023/10/06 06:34:04;;;;;;;11.13;9.10;;;;;;;23.92;55.43;101933.44;5015062;28;20042;-71
2023/10/06 06:36:32;;;;;;;11.05;9.13;;;;;;;23.96;55.64;101938.59;5012754;28;20543;-66
2023/10/06 06:39:00;;;;;;;9.43;8.48;;;;;;;24.04;55.64;101941.47;5014270;28;20050;-71
2023/10/06 06:41:27;;;;;;;10.93;8.63;;;;;;;24.09;55.68;101948.19;5014727;28;20057;-65
2023/10/06 06:43:58;;;;;;;10.30;9.00;;;;;;;24.12;55.97;101953.31;5014929;28;20069;-66
2023/10/06 06:46:26;;;;;;;10.93;7.97;;;;;;;24.14;55.89;101947.78;5014073;28;20049;-59
2023/10/06 06:48:54;;;;;;;9.43;8.20;;;;;;;24.16;55.74;101957.47;5014087;28;20041;-64
2023/10/06 06:51:30;;;;;;;9.82;8.63;;;;;;;24.22;55.37;101960.63;5014163;28;20409;-64
2023/10/06 06:53:58;;;;;;;13.05;10.93;;;;;;;24.25;54.89;101966.63;5013379;28;20429;-66
2023/10/06 06:56:29;;;;;;;13.93;11.23;;;;;;;24.31;54.85;101968.78;5013983;28;20046;-63
2023/10/06 06:59:00;;;;;;;14.40;11.10;;;;;;;24.33;54.49;101966.78;5014031;28;20050;-62
2023/10/06 07:01:28;;;;;;;16.10;12.68;;;;;;;24.37;54.01;101979.06;5012599;28;20116;-61
2023/10/06 07:04:00;;;;;;;15.60;11.48;;;;;;;24.38;54.09;101977.22;5012870;28;20053;-62
2023/10/06 07:06:30;;;;;;;;;;;;;;;24.38;53.76;101980.78;5014328;28;20049;-60
2023/10/06 07:08:58;;;;;;;15.60;11.52;;;;;;;24.42;53.93;101979.50;5014034;28;19925;-60
2023/10/06 07:11:27;;;;;;;15.73;12.30;;;;;;;24.44;53.87;101983.97;5010286;28;20050;-59
2023/10/06 07:13:57;;;;;;;14.73;12.57;;;;;;;24.44;53.58;101990.22;5013053;28;20049;-64
2023/10/06 07:16:25;;;;;;;17.40;12.52;;;;;;;24.41;53.82;101985.94;5014260;28;20069;-65
2023/10/06 07:18:53;;;;;;;14.55;12.35;;;;;;;24.39;53.98;101987.94;5013905;28;20049;-62
2023/10/06 07:21:22;;;;;;;15.80;13.50;;;;;;;24.38;53.95;101988.91;5013591;28;20042;-61
2023/10/06 07:23:52;;;;;;;17.15;13.38;;;;;;;24.39;53.83;101995.19;5002793;28;20523;-61
2023/10/06 07:26:19;;;;;;;16.85;13.40;;;;;;;24.35;53.89;102005.41;5013908;28;20049;-61
2023/10/06 07:28:51;;;;;;;15.52;13.82;;;;;;;24.32;54.29;102008.38;5013674;28;20053;-63
2023/10/06 07:31:19;;;;;;;18.17;14.95;;;;;;;24.33;54.22;102006.53;5012004;28;20447;-61
2023/10/06 07:33:54;;;;;;;16.08;14.15;;;;;;;24.35;54.06;102007.25;5013990;28;20049;-68
2023/10/06 07:36:21;;;;;;;18.73;15.43;;;;;;;24.34;54.53;102008.22;5013632;28;20495;-60
2023/10/06 07:38:49;;;;;;;18.98;16.98;;;;;;;24.34;54.28;102019.06;4983677;28;20053;-64
2023/10/06 07:41:23;;;;;;;17.30;14.18;;;;;;;24.33;54.46;102018.22;5012366;28;20054;-56
2023/10/06 07:43:52;;;;;;;16.27;13.27;;;;;;;24.36;54.59;102025.22;5013422;28;20044;-62
2023/10/06 07:46:19;;;;;;;15.15;12.43;;;;;;;24.38;54.44;102017.81;5013495;28;20053;-60
2023/10/06 07:48:50;;;;;;;13.48;11.90;;;;;;;24.41;54.50;102020.25;5007130;28;20054;-61
2023/10/06 07:51:17;;;;;;;13.93;11.32;;;;;;;24.43;54.34;102023.72;5012182;28;20061;-64
2023/10/06 07:53:45;;;;;;;12.70;11.05;;;;;;;24.45;54.51;102016.28;5013375;28;20046;-65
2023/10/06 07:56:14;;;;;;;13.25;11.52;;;;;;;24.47;54.46;102019.72;5013496;28;20049;-65
2023/10/06 07:58:42;;;;;;;12.20;10.57;;;;;;;24.48;54.68;102021.44;5009345;28;20050;-61
2023/10/06 08:01:12;;;;;;;12.05;9.88;;;;;;;24.51;54.43;102018.47;5013102;28;20042;-68
2023/10/06 08:03:41;;;;;;;11.93;10.52;;;;;;;24.54;54.35;102020.88;5012177;28;20393;-66
2023/10/06 08:06:10;;;;;;;12.05;9.77;;;;;;;24.55;54.41;102024.44;5012323;28;20046;-64
2023/10/06 08:08:38;;;;;;;12.95;9.80;;;;;;;24.56;54.34;102023.47;5012098;28;20104;-64
2023/10/06 08:11:09;;;;;;;12.63;11.13;;;;;;;24.57;54.49;102031.44;5002905;28;20053;-59
2023/10/06 08:13:38;;;;;;;12.23;10.23;;;;;;;24.57;54.48;102031.44;4996399;28;20058;-59
2023/10/06 08:16:08;;;;;;;12.65;11.13;;;;;;;24.59;54.62;102029.47;5012830;28;20065;-59
2023/10/06 08:18:35;;;;;;;11.90;10.25;;;;;;;24.61;54.88;102034.72;5011514;28;20057;-62
2023/10/06 08:21:03;;;;;;;11.73;10.20;;;;;;;24.63;54.70;102044.44;5012587;28;20416;-61
2023/10/06 08:23:35;;;;;;;12.05;10.05;;;;;;;24.65;54.63;102045.16;5012653;28;20049;-61
2023/10/06 08:26:08;;;;;;;10.75;9.65;;;;;;;24.67;54.72;102043.19;5026472;28;20057;-62
2023/10/06 08:28:36;;;;;;;12.13;10.30;;;;;;;24.69;54.70;102051.16;5011574;28;20394;-61
2023/10/06 08:31:04;;;;;;;13.05;10.10;;;;;;;24.67;54.67;102045.88;5012081;28;20053;-59
2023/10/06 08:33:32;;;;;;;12.35;9.65;;;;;;;24.70;54.51;102052.00;5012430;28;20046;-64
2023/10/06 08:36:01;;;;;;;10.07;9.07;;;;;;;24.72;54.47;102055.44;5008129;28;20476;-64
2023/10/06 08:38:30;;;;;;;11.05;9.95;;;;;;;24.74;54.53;102053.44;5011291;28;20050;-62
2023/10/06 08:41:01;;;;;;;12.73;9.65;;;;;;;24.75;54.54;102050.56;5012574;28;20408;-63
2023/10/06 08:43:30;;;;;;;11.57;10.38;;;;;;;24.77;54.72;102053.16;5012320;28;20046;-60
2023/10/06 08:45:59;;;;;;;11.75;9.30;;;;;;;24.78;54.59;102053.03;5012226;28;20492;-62
2023/10/06 08:48:32;;;;;;;10.50;9.38;;;;;;;24.80;54.79;102058.31;5012063;28;20053;-65
2023/10/06 08:51:04;;;;;;;10.85;9.82;;;;;;;24.81;54.85;102054.59;5012587;28;20046;-61
2023/10/06 08:53:35;;;;;;;10.27;9.27;;;;;;;24.83;54.68;102047.19;5012243;28;20060;-62
2023/10/06 08:56:03;;;;;;;11.05;9.52;;;;;;;24.83;54.71;102053.47;5011170;28;20061;-61
2023/10/06 08:58:31;;;;;;;11.13;9.95;;;;;;;24.81;54.87;102049.19;5012130;28;20519;-61
2023/10/06 09:00:59;;;;;;;10.77;9.70;;;;;;;24.77;54.78;102055.88;5012034;28;20050;-60
2023/10/06 09:03:27;;;;;;;11.60;10.32;;;;;;;24.75;54.94;102055.13;5008769;28;20401;-62
2023/10/06 09:05:55;;;;;;;13.07;9.82;;;;;;;24.75;55.02;102052.44;5010423;28;20068;-62
2023/10/06 09:08:23;;;;;;;11.25;10.00;;;;;;;24.78;55.13;102058.44;5012098;28;20045;-61
2023/10/06 09:10:54;;;;;;;10.50;9.43;;;;;;;24.82;55.03;102057.16;5027443;28;20050;-60
2023/10/06 09:13:22;;;;;;;10.70;9.70;;;;;;;24.84;54.83;102057.91;5007648;28;20479;-61
2023/10/06 09:16:09;;;;;;;10.68;9.57;;;;;;;24.87;54.72;102056.75;5010654;28;20042;-62
2023/10/06 09:18:39;;;;;;;13.57;10.30;;;;;;;24.86;54.69;102053.19;5011431;28;20045;-67
2023/10/06 09:21:19;;;;;;;11.50;9.93;;;;;;;24.89;54.79;102049.34;5011839;28;20416;-58
2023/10/06 09:23:49;;;;;;;12.07;10.10;;;;;;;24.89;54.73;102052.06;5012808;28;20055;-59
2023/10/06 09:26:29;;;;;;;10.68;9.57;;;;;;;24.88;54.90;102043.06;5014513;28;20056;-61
2023/10/06 09:29:01;;;;;;;10.45;9.32;;;;;;;24.91;54.60;102050.06;5014972;28;20056;-65
2023/10/06 09:31:46;;;;;;;11.90;10.15;;;;;;;24.92;54.58;102049.94;5014903;28;20069;-64
2023/10/06 09:34:26;;;;;;;11.75;10.48;;;;;;;24.92;54.56;102044.50;5015873;28;20042;-59
2023/10/06 09:36:54;;;;;;;12.63;11.27;;;;;;;24.93;54.63;102045.38;5015985;28;20046;-58
2023/10/06 09:39:32;;;;;;;11.32;10.27;;;;;;;24.96;54.72;102044.25;5014758;28;20050;-63
2023/10/06 09:42:01;;;;;;;12.52;10.30;;;;;;;24.93;54.57;102037.25;5015762;28;20050;-64
2023/10/06 09:44:29;;;;;;;12.55;10.77;;;;;;;24.93;54.76;102037.25;5015507;28;20049;-65
2023/10/06 09:47:01;;;;;;;11.50;10.30;;;;;;;24.94;54.79;102038.09;5015824;28;20053;-61
2023/10/06 09:49:31;;;;;;;12.85;10.98;;;;;;;24.93;55.08;102031.81;5006019;28;20054;-64
2023/10/06 09:52:01;;;;;;;14.40;12.32;;;;;;;24.95;55.79;102029.81;5015861;28;20049;-65
2023/10/06 09:54:30;;;;;;;16.08;14.38;;;;;;;24.94;55.72;102032.66;5015446;28;20053;-60
2023/10/06 09:56:59;;;;;;;14.93;13.38;;;;;;;24.94;56.12;102035.38;5014149;28;20049;-58
2023/10/06 09:59:31;;;;;;;13.63;11.80;;;;;;;24.94;56.39;102030.81;5015295;28;20049;-64
2023/10/06 10:02:03;;;;;;;13.73;12.17;;;;;;;24.94;56.92;102027.25;5015706;28;20049;-57
2023/10/06 10:04:33;;;;;;;12.32;10.77;;;;;;;24.93;57.10;102029.13;5011258;28;20295;-60
2023/10/06 10:07:01;;;;;;;13.63;11.88;;;;;;;24.91;57.37;102023.84;5014178;28;20058;-65
2023/10/06 10:09:34;;;;;;;11.63;10.43;;;;;;;24.91;57.16;102028.38;5008155;28;20053;-59
2023/10/06 10:12:04;;;;;;;;;;;;;;;24.88;57.52;102016.00;5015648;28;20054;-61
2023/10/06 10:15:15;;;;;;;14.38;11.40;;;;;;;24.90;57.63;102022.09;5014320;28;19921;-60
2023/10/06 10:17:58;;;;;;;12.32;11.02;;;;;;;24.90;57.92;102015.84;5011036;28;20045;-65
2023/10/06 10:20:27;;;;;;;12.57;11.27;;;;;;;24.90;57.98;102015.84;5014164;28;20061;-61
2023/10/06 10:22:56;;;;;;;10.82;9.73;;;;;;;24.89;58.46;102019.56;5005552;28;20065;-61
2023/10/06 10:25:24;;;;;;;12.02;10.82;;;;;;;24.90;58.61;102013.13;5015104;28;20045;-60
2023/10/06 10:28:12;;;;;;;11.40;10.20;;;;;;;24.89;58.53;102016.84;5014705;28;20481;-68
2023/10/06 10:30:59;;;;;;;12.50;11.02;;;;;;;24.88;58.01;102013.28;5014737;28;20418;-65
2023/10/06 10:33:31;;;;;;;12.45;10.15;;;;;;;24.88;57.88;102007.88;5015388;28;20049;-65
2023/10/06 10:36:20;;;;;;;12.38;10.63;;;;;;;24.88;58.39;102007.00;5013684;28;20049;-60
2023/10/06 10:38:59;;;;;;;12.93;10.43;;;;;;;24.87;58.59;101998.03;5016236;28;20050;-59
2023/10/06 10:41:33;;;;;;;10.90;9.73;;;;;;;24.87;58.89;101994.44;5014390;28;20076;-64
2023/10/06 10:44:03;;;;;;;11.80;10.55;;;;;;;24.87;58.60;101994.44;5015019;28;20042;-59
2023/10/06 10:46:53;;;;;;;12.43;9.75;;;;;;;24.88;58.64;101993.47;5019607;28;20046;-61
2023/10/06 10:49:22;;;;;;;12.10;10.32;;;;;;;24.86;58.85;101990.03;5015451;28;20054;-64
2023/10/06 10:52:00;;;;;;;12.27;10.90;;;;;;;24.85;58.90;101986.47;5014152;28;20053;-60
2023/10/06 10:54:32;;;;;;;12.93;9.48;;;;;;;24.87;58.71;101989.91;5011817;28;20050;-62
2023/10/06 10:57:21;;;;;;;13.23;9.70;;;;;;;24.89;58.93;101987.03;5015522;28;20416;-62
2023/10/06 11:00:00;;;;;;;11.43;9.75;;;;;;;24.88;59.18;101982.63;5011027;28;20510;-59
2023/10/06 11:02:41;;;;;;;10.90;9.75;;;;;;;24.84;59.46;101979.34;5014136;28;20052;-59
2023/10/06 11:05:09;;;;;;;11.15;9.95;;;;;;;24.80;59.42;101972.50;5014193;28;20053;-63
2023/10/06 11:07:37;;;;;;;12.23;9.18;;;;;;;24.81;59.56;101967.94;5013683;28;20057;-65
2023/10/06 11:10:05;;;;;;;10.20;8.98;;;;;;;24.81;59.58;101976.06;5003491;28;20042;-60
2023/10/06 11:12:35;;;;;;;10.60;9.50;;;;;;;24.81;59.87;101962.50;5014294;28;20515;-60
2023/10/06 11:15:05;;;;;;;10.73;9.48;;;;;;;24.79;59.86;101964.50;5014149;28;20049;-60
2023/10/06 11:17:33;;;;;;;10.50;8.60;;;;;;;24.76;60.24;101960.22;5012885;28;20060;-60
2023/10/06 11:20:13;;;;;;;12.25;9.88;;;;;;;24.73;60.66;101949.69;5013771;28;20069;-60
2023/10/06 11:23:03;;;;;;;10.63;9.15;;;;;;;24.72;60.83;101957.94;5014210;28;20042;-60
2023/10/06 11:25:38;;;;;;;10.82;9.60;;;;;;;24.70;60.78;101955.38;5011518;28;20049;-60
2023/10/06 11:28:09;;;;;;;9.70;8.60;;;;;;;24.67;60.58;101951.09;5013924;28;20045;-60
2023/10/06 11:30:42;;;;;;;10.32;9.13;;;;;;;24.67;60.56;101947.50;5014174;28;20415;-60
2023/10/06 11:33:11;;;;;;;11.95;9.13;;;;;;;24.65;60.66;101944.97;5012262;28;20492;-60
2023/10/06 11:35:40;;;;;;;12.18;9.10;;;;;;;24.65;60.66;101936.84;5003714;28;20499;-60
2023/10/06 11:38:11;;;;;;;10.02;8.82;;;;;;;24.64;60.64;101929.72;5014053;28;20381;-60
2023/10/06 11:40:40;;;;;;;9.65;7.95;;;;;;;24.64;60.36;101934.28;5013966;28;20050;-62
2023/10/06 11:43:14;;;;;;;12.43;9.63;;;;;;;24.63;60.28;101927.13;5015536;28;20399;-63
2023/10/06 11:45:46;;;;;;;11.13;8.77;;;;;;;24.62;60.15;101915.44;5013253;28;20045;-63
2023/10/06 11:48:31;;;;;;;10.55;8.77;;;;;;;24.61;60.01;101916.44;5014093;28;20049;-63